sensor_id;sensor_type;location;lat;lon;timestamp;P1;durP1;ratioP1;P2;durP2;ratioP2
79755;SDS011;69239;50.678;12.280;2023-06-26T00:00:31;5.25;;;3.83;;
79755;SDS011;69239;50.678;12.280;2023-06-26T00:02:57;5.97;;;3.42;;
79755;SDS011;69239;50.678;12.280;2023-06-26T00:05:23;6.75;;;3.70;;
79755;SDS011;69239;50.678;12.280;2023-06-26T00:07:48;6.38;;;3.78;;
79755;SDS011;69239;50.678;12.280;2023-06-26T00:10:13;5.00;;;3.28;;
79755;SDS011;69239;50.678;12.280;2023-06-26T00:12:39;5.60;;;3.58;;
79755;SDS011;69239;50.678;12.280;2023-06-26T00:15:04;5.93;;;4.00;;
79755;SDS011;69239;50.678;12.280;2023-06-26T00:17:30;4.15;;;3.10;;
79755;SDS011;69239;50.678;12.280;2023-06-26T00:19:55;5.97;;;3.87;;
79755;SDS011;69239;50.678;12.280;2023-06-26T00:22:21;5.43;;;3.50;;
79755;SDS011;69239;50.678;12.280;2023-06-26T00:24:46;6.43;;;4.03;;
79755;SDS011;69239;50.678;12.280;2023-06-26T00:27:12;6.10;;;3.67;;
79755;SDS011;69239;50.678;12.280;2023-06-26T00:29:37;4.93;;;3.42;;
79755;SDS011;69239;50.678;12.280;2023-06-26T00:32:03;8.30;;;3.50;;
79755;SDS011;69239;50.678;12.280;2023-06-26T00:34:29;5.32;;;3.55;;
79755;SDS011;69239;50.678;12.280;2023-06-26T00:36:54;6.25;;;3.75;;
79755;SDS011;69239;50.678;12.280;2023-06-26T00:39:20;4.85;;;3.67;;
79755;SDS011;69239;50.678;12.280;2023-06-26T00:41:45;4.70;;;3.35;;
79755;SDS011;69239;50.678;12.280;2023-06-26T00:44:11;6.07;;;4.10;;
79755;SDS011;69239;50.678;12.280;2023-06-26T00:46:36;5.60;;;4.00;;
79755;SDS011;69239;50.678;12.280;2023-06-26T00:49:02;7.82;;;3.50;;
79755;SDS011;69239;50.678;12.280;2023-06-26T00:51:29;7.97;;;3.53;;
79755;SDS011;69239;50.678;12.280;2023-06-26T00:53:55;6.10;;;3.47;;
79755;SDS011;69239;50.678;12.280;2023-06-26T00:56:21;5.35;;;3.30;;
79755;SDS011;69239;50.678;12.280;2023-06-26T00:58:47;5.75;;;3.88;;
79755;SDS011;69239;50.678;12.280;2023-06-26T01:01:13;4.97;;;3.60;;
79755;SDS011;69239;50.678;12.280;2023-06-26T01:03:45;5.88;;;3.60;;
79755;SDS011;69239;50.678;12.280;2023-06-26T01:06:16;5.25;;;3.53;;
79755;SDS011;69239;50.678;12.280;2023-06-26T01:08:43;6.78;;;3.85;;
79755;SDS011;69239;50.678;12.280;2023-06-26T01:11:09;5.35;;;3.33;;
79755;SDS011;69239;50.678;12.280;2023-06-26T01:13:34;6.63;;;3.63;;
79755;SDS011;69239;50.678;12.280;2023-06-26T01:16:01;4.35;;;3.17;;
79755;SDS011;69239;50.678;12.280;2023-06-26T01:18:27;6.43;;;3.75;;
79755;SDS011;69239;50.678;12.280;2023-06-26T01:20:54;5.60;;;3.97;;
79755;SDS011;69239;50.678;12.280;2023-06-26T01:26:19;6.95;;;3.85;;
79755;SDS011;69239;50.678;12.280;2023-06-26T01:28:46;6.05;;;3.53;;
79755;SDS011;69239;50.678;12.280;2023-06-26T01:31:12;5.95;;;3.42;;
79755;SDS011;69239;50.678;12.280;2023-06-26T01:33:39;5.55;;;3.83;;
79755;SDS011;69239;50.678;12.280;2023-06-26T01:36:05;4.25;;;3.22;;
79755;SDS011;69239;50.678;12.280;2023-06-26T01:38:31;5.82;;;3.45;;
79755;SDS011;69239;50.678;12.280;2023-06-26T01:40:57;7.28;;;3.80;;
79755;SDS011;69239;50.678;12.280;2023-06-26T01:46:11;7.53;;;4.28;;
79755;SDS011;69239;50.678;12.280;2023-06-26T01:48:47;5.82;;;4.22;;
79755;SDS011;69239;50.678;12.280;2023-06-26T01:51:26;9.40;;;3.80;;
79755;SDS011;69239;50.678;12.280;2023-06-26T01:56:21;6.70;;;3.42;;
79755;SDS011;69239;50.678;12.280;2023-06-26T01:58:49;5.10;;;3.70;;
79755;SDS011;69239;50.678;12.280;2023-06-26T02:01:19;6.18;;;3.60;;
79755;SDS011;69239;50.678;12.280;2023-06-26T02:03:45;6.90;;;3.58;;
79755;SDS011;69239;50.678;12.280;2023-06-26T02:06:10;5.50;;;4.03;;
79755;SDS011;69239;50.678;12.280;2023-06-26T02:08:35;7.40;;;4.10;;
79755;SDS011;69239;50.678;12.280;2023-06-26T02:11:01;4.95;;;3.80;;
79755;SDS011;69239;50.678;12.280;2023-06-26T02:13:26;4.53;;;3.53;;
79755;SDS011;69239;50.678;12.280;2023-06-26T02:15:51;9.57;;;3.63;;
79755;SDS011;69239;50.678;12.280;2023-06-26T02:18:17;8.63;;;3.72;;
79755;SDS011;69239;50.678;12.280;2023-06-26T02:20:42;4.65;;;3.63;;
79755;SDS011;69239;50.678;12.280;2023-06-26T02:23:09;6.20;;;3.90;;
79755;SDS011;69239;50.678;12.280;2023-06-26T02:25:34;6.50;;;4.13;;
79755;SDS011;69239;50.678;12.280;2023-06-26T02:28:00;6.47;;;4.15;;
79755;SDS011;69239;50.678;12.280;2023-06-26T02:30:25;10.70;;;4.55;;
79755;SDS011;69239;50.678;12.280;2023-06-26T02:32:50;5.47;;;4.50;;
79755;SDS011;69239;50.678;12.280;2023-06-26T02:35:16;7.90;;;5.00;;
79755;SDS011;69239;50.678;12.280;2023-06-26T02:37:41;6.03;;;3.55;;
79755;SDS011;69239;50.678;12.280;2023-06-26T02:40:07;5.40;;;3.50;;
79755;SDS011;69239;50.678;12.280;2023-06-26T02:42:34;8.93;;;4.55;;
79755;SDS011;69239;50.678;12.280;2023-06-26T02:44:59;6.78;;;3.63;;
79755;SDS011;69239;50.678;12.280;2023-06-26T02:47:25;9.35;;;4.65;;
79755;SDS011;69239;50.678;12.280;2023-06-26T02:49:50;5.93;;;3.87;;
79755;SDS011;69239;50.678;12.280;2023-06-26T02:52:15;6.93;;;4.70;;
79755;SDS011;69239;50.678;12.280;2023-06-26T02:54:41;7.53;;;4.50;;
79755;SDS011;69239;50.678;12.280;2023-06-26T02:57:06;9.07;;;5.07;;
79755;SDS011;69239;50.678;12.280;2023-06-26T02:59:32;9.82;;;4.90;;
79755;SDS011;69239;50.678;12.280;2023-06-26T03:01:57;10.63;;;5.45;;
79755;SDS011;69239;50.678;12.280;2023-06-26T03:04:22;6.90;;;5.77;;
79755;SDS011;69239;50.678;12.280;2023-06-26T03:06:48;7.22;;;5.00;;
79755;SDS011;69239;50.678;12.280;2023-06-26T03:09:13;8.82;;;5.40;;
79755;SDS011;69239;50.678;12.280;2023-06-26T03:11:38;6.38;;;4.93;;
79755;SDS011;69239;50.678;12.280;2023-06-26T03:14:04;10.70;;;4.93;;
79755;SDS011;69239;50.678;12.280;2023-06-26T03:16:29;9.85;;;4.82;;
79755;SDS011;69239;50.678;12.280;2023-06-26T03:18:54;8.40;;;4.93;;
79755;SDS011;69239;50.678;12.280;2023-06-26T03:21:20;7.45;;;4.82;;
79755;SDS011;69239;50.678;12.280;2023-06-26T03:23:45;6.55;;;4.82;;
79755;SDS011;69239;50.678;12.280;2023-06-26T03:26:11;7.50;;;5.20;;
79755;SDS011;69239;50.678;12.280;2023-06-26T03:28:36;7.28;;;5.07;;
79755;SDS011;69239;50.678;12.280;2023-06-26T03:31:01;8.23;;;4.93;;
79755;SDS011;69239;50.678;12.280;2023-06-26T03:33:27;6.30;;;4.97;;
79755;SDS011;69239;50.678;12.280;2023-06-26T03:35:52;6.90;;;5.57;;
79755;SDS011;69239;50.678;12.280;2023-06-26T03:38:17;7.18;;;5.53;;
79755;SDS011;69239;50.678;12.280;2023-06-26T03:40:43;8.27;;;5.72;;
79755;SDS011;69239;50.678;12.280;2023-06-26T03:43:08;6.43;;;4.88;;
79755;SDS011;69239;50.678;12.280;2023-06-26T03:45:33;8.20;;;5.20;;
79755;SDS011;69239;50.678;12.280;2023-06-26T03:47:59;7.07;;;5.30;;
79755;SDS011;69239;50.678;12.280;2023-06-26T03:50:24;6.47;;;4.77;;
79755;SDS011;69239;50.678;12.280;2023-06-26T03:52:49;6.97;;;5.40;;
79755;SDS011;69239;50.678;12.280;2023-06-26T03:55:16;7.55;;;5.28;;
79755;SDS011;69239;50.678;12.280;2023-06-26T03:57:42;8.00;;;5.28;;
79755;SDS011;69239;50.678;12.280;2023-06-26T04:00:08;7.63;;;5.38;;
79755;SDS011;69239;50.678;12.280;2023-06-26T04:02:34;7.15;;;5.88;;
79755;SDS011;69239;50.678;12.280;2023-06-26T04:05:00;6.43;;;5.25;;
79755;SDS011;69239;50.678;12.280;2023-06-26T04:07:25;10.10;;;5.10;;
79755;SDS011;69239;50.678;12.280;2023-06-26T04:09:51;6.97;;;4.93;;
79755;SDS011;69239;50.678;12.280;2023-06-26T04:12:17;9.93;;;5.78;;
79755;SDS011;69239;50.678;12.280;2023-06-26T04:14:42;6.28;;;5.22;;
79755;SDS011;69239;50.678;12.280;2023-06-26T04:17:07;7.95;;;5.85;;
79755;SDS011;69239;50.678;12.280;2023-06-26T04:19:33;8.32;;;5.35;;
79755;SDS011;69239;50.678;12.280;2023-06-26T04:21:58;7.18;;;5.07;;
79755;SDS011;69239;50.678;12.280;2023-06-26T04:24:24;6.27;;;5.00;;
79755;SDS011;69239;50.678;12.280;2023-06-26T04:26:50;6.32;;;5.05;;
79755;SDS011;69239;50.678;12.280;2023-06-26T04:29:15;7.68;;;4.78;;
79755;SDS011;69239;50.678;12.280;2023-06-26T04:31:40;6.43;;;3.90;;
79755;SDS011;69239;50.678;12.280;2023-06-26T04:34:06;7.45;;;4.57;;
79755;SDS011;69239;50.678;12.280;2023-06-26T04:36:31;7.22;;;4.80;;
79755;SDS011;69239;50.678;12.280;2023-06-26T04:38:58;5.38;;;4.40;;
79755;SDS011;69239;50.678;12.280;2023-06-26T04:41:24;6.88;;;4.70;;
79755;SDS011;69239;50.678;12.280;2023-06-26T04:43:50;9.68;;;5.35;;
79755;SDS011;69239;50.678;12.280;2023-06-26T04:46:15;9.07;;;4.88;;
79755;SDS011;69239;50.678;12.280;2023-06-26T04:48:40;6.63;;;4.65;;
79755;SDS011;69239;50.678;12.280;2023-06-26T04:51:06;7.15;;;5.15;;
79755;SDS011;69239;50.678;12.280;2023-06-26T04:53:31;6.75;;;5.10;;
79755;SDS011;69239;50.678;12.280;2023-06-26T04:55:57;6.88;;;5.20;;
79755;SDS011;69239;50.678;12.280;2023-06-26T04:58:22;7.47;;;5.75;;
79755;SDS011;69239;50.678;12.280;2023-06-26T05:00:48;6.43;;;4.93;;
79755;SDS011;69239;50.678;12.280;2023-06-26T05:03:13;6.97;;;5.03;;
79755;SDS011;69239;50.678;12.280;2023-06-26T05:05:41;8.57;;;5.00;;
79755;SDS011;69239;50.678;12.280;2023-06-26T05:08:17;7.93;;;5.35;;
79755;SDS011;69239;50.678;12.280;2023-06-26T05:10:45;7.43;;;4.90;;
79755;SDS011;69239;50.678;12.280;2023-06-26T05:13:11;7.28;;;5.00;;
79755;SDS011;69239;50.678;12.280;2023-06-26T05:15:40;9.52;;;5.47;;
79755;SDS011;69239;50.678;12.280;2023-06-26T05:18:06;6.20;;;4.60;;
79755;SDS011;69239;50.678;12.280;2023-06-26T05:20:31;7.50;;;5.10;;
79755;SDS011;69239;50.678;12.280;2023-06-26T05:22:57;6.18;;;4.80;;
79755;SDS011;69239;50.678;12.280;2023-06-26T05:25:23;6.25;;;4.47;;
79755;SDS011;69239;50.678;12.280;2023-06-26T05:27:49;7.63;;;4.93;;
79755;SDS011;69239;50.678;12.280;2023-06-26T05:30:15;5.85;;;4.65;;
79755;SDS011;69239;50.678;12.280;2023-06-26T05:32:41;6.18;;;4.85;;
79755;SDS011;69239;50.678;12.280;2023-06-26T05:35:08;7.45;;;5.22;;
79755;SDS011;69239;50.678;12.280;2023-06-26T05:37:34;6.65;;;5.22;;
79755;SDS011;69239;50.678;12.280;2023-06-26T05:40:00;7.95;;;5.35;;
79755;SDS011;69239;50.678;12.280;2023-06-26T05:42:28;7.38;;;5.00;;
79755;SDS011;69239;50.678;12.280;2023-06-26T05:44:54;7.45;;;5.30;;
79755;SDS011;69239;50.678;12.280;2023-06-26T05:47:19;5.70;;;4.47;;
79755;SDS011;69239;50.678;12.280;2023-06-26T05:49:44;7.55;;;5.03;;
79755;SDS011;69239;50.678;12.280;2023-06-26T05:52:10;7.85;;;4.93;;
79755;SDS011;69239;50.678;12.280;2023-06-26T05:54:36;5.55;;;4.63;;
79755;SDS011;69239;50.678;12.280;2023-06-26T05:57:02;7.00;;;4.72;;
79755;SDS011;69239;50.678;12.280;2023-06-26T05:59:29;7.07;;;5.03;;
79755;SDS011;69239;50.678;12.280;2023-06-26T06:01:56;7.22;;;4.60;;
79755;SDS011;69239;50.678;12.280;2023-06-26T06:04:21;6.53;;;4.60;;
79755;SDS011;69239;50.678;12.280;2023-06-26T06:06:47;7.07;;;4.80;;
79755;SDS011;69239;50.678;12.280;2023-06-26T06:09:12;6.22;;;4.82;;
79755;SDS011;69239;50.678;12.280;2023-06-26T06:11:38;9.23;;;4.78;;
79755;SDS011;69239;50.678;12.280;2023-06-26T06:14:03;5.90;;;4.65;;
79755;SDS011;69239;50.678;12.280;2023-06-26T06:16:29;10.32;;;4.82;;
79755;SDS011;69239;50.678;12.280;2023-06-26T06:18:55;6.55;;;4.35;;
79755;SDS011;69239;50.678;12.280;2023-06-26T06:21:20;7.22;;;4.50;;
79755;SDS011;69239;50.678;12.280;2023-06-26T06:23:46;10.80;;;4.90;;
79755;SDS011;69239;50.678;12.280;2023-06-26T06:26:11;8.88;;;4.90;;
79755;SDS011;69239;50.678;12.280;2023-06-26T06:28:38;5.30;;;4.13;;
79755;SDS011;69239;50.678;12.280;2023-06-26T06:31:04;6.28;;;5.13;;
79755;SDS011;69239;50.678;12.280;2023-06-26T06:33:30;7.13;;;4.57;;
79755;SDS011;69239;50.678;12.280;2023-06-26T06:35:55;6.15;;;4.72;;
79755;SDS011;69239;50.678;12.280;2023-06-26T06:38:20;6.55;;;4.40;;
79755;SDS011;69239;50.678;12.280;2023-06-26T06:40:46;7.60;;;4.73;;
79755;SDS011;69239;50.678;12.280;2023-06-26T06:43:11;7.32;;;4.22;;
79755;SDS011;69239;50.678;12.280;2023-06-26T06:45:36;5.95;;;3.95;;
79755;SDS011;69239;50.678;12.280;2023-06-26T06:48:03;8.00;;;4.03;;
79755;SDS011;69239;50.678;12.280;2023-06-26T06:50:29;6.72;;;4.57;;
79755;SDS011;69239;50.678;12.280;2023-06-26T06:52:54;6.05;;;3.95;;
79755;SDS011;69239;50.678;12.280;2023-06-26T06:55:20;5.53;;;3.92;;
79755;SDS011;69239;50.678;12.280;2023-06-26T06:57:45;5.93;;;4.60;;
79755;SDS011;69239;50.678;12.280;2023-06-26T07:00:11;5.68;;;4.10;;
79755;SDS011;69239;50.678;12.280;2023-06-26T07:02:39;5.68;;;4.28;;
79755;SDS011;69239;50.678;12.280;2023-06-26T07:05:07;6.90;;;4.70;;
79755;SDS011;69239;50.678;12.280;2023-06-26T07:07:34;7.57;;;4.90;;
79755;SDS011;69239;50.678;12.280;2023-06-26T07:10:01;8.68;;;4.25;;
79755;SDS011;69239;50.678;12.280;2023-06-26T07:12:29;8.57;;;5.00;;
79755;SDS011;69239;50.678;12.280;2023-06-26T07:14:55;7.70;;;5.85;;
79755;SDS011;69239;50.678;12.280;2023-06-26T07:17:21;7.55;;;4.30;;
79755;SDS011;69239;50.678;12.280;2023-06-26T07:19:47;5.38;;;4.40;;
79755;SDS011;69239;50.678;12.280;2023-06-26T07:22:13;4.78;;;3.88;;
79755;SDS011;69239;50.678;12.280;2023-06-26T07:24:38;5.22;;;4.22;;
79755;SDS011;69239;50.678;12.280;2023-06-26T07:27:04;6.53;;;4.55;;
79755;SDS011;69239;50.678;12.280;2023-06-26T07:29:29;7.57;;;4.80;;
79755;SDS011;69239;50.678;12.280;2023-06-26T07:31:55;5.63;;;4.40;;
79755;SDS011;69239;50.678;12.280;2023-06-26T07:34:20;6.28;;;4.35;;
79755;SDS011;69239;50.678;12.280;2023-06-26T07:36:46;4.78;;;4.07;;
79755;SDS011;69239;50.678;12.280;2023-06-26T07:39:11;7.40;;;4.68;;
79755;SDS011;69239;50.678;12.280;2023-06-26T07:41:36;5.10;;;4.40;;
79755;SDS011;69239;50.678;12.280;2023-06-26T07:44:02;5.50;;;4.30;;
79755;SDS011;69239;50.678;12.280;2023-06-26T07:46:27;5.93;;;4.22;;
79755;SDS011;69239;50.678;12.280;2023-06-26T07:48:53;5.93;;;4.30;;
79755;SDS011;69239;50.678;12.280;2023-06-26T07:51:19;5.70;;;4.60;;
79755;SDS011;69239;50.678;12.280;2023-06-26T07:53:44;4.95;;;3.95;;
79755;SDS011;69239;50.678;12.280;2023-06-26T07:56:09;7.30;;;4.35;;
79755;SDS011;69239;50.678;12.280;2023-06-26T07:58:35;6.40;;;4.55;;
79755;SDS011;69239;50.678;12.280;2023-06-26T08:01:02;7.05;;;4.35;;
79755;SDS011;69239;50.678;12.280;2023-06-26T08:03:30;6.65;;;4.55;;
79755;SDS011;69239;50.678;12.280;2023-06-26T08:05:55;5.97;;;4.40;;
79755;SDS011;69239;50.678;12.280;2023-06-26T08:08:21;7.68;;;4.65;;
79755;SDS011;69239;50.678;12.280;2023-06-26T08:10:46;5.47;;;4.20;;
79755;SDS011;69239;50.678;12.280;2023-06-26T08:13:12;6.15;;;4.47;;
79755;SDS011;69239;50.678;12.280;2023-06-26T08:15:37;7.85;;;5.03;;
79755;SDS011;69239;50.678;12.280;2023-06-26T08:18:02;4.72;;;3.88;;
79755;SDS011;69239;50.678;12.280;2023-06-26T08:20:28;6.88;;;4.70;;
79755;SDS011;69239;50.678;12.280;2023-06-26T08:22:53;5.13;;;4.18;;
79755;SDS011;69239;50.678;12.280;2023-06-26T08:25:19;11.05;;;4.65;;
79755;SDS011;69239;50.678;12.280;2023-06-26T08:27:45;5.15;;;4.35;;
79755;SDS011;69239;50.678;12.280;2023-06-26T08:30:10;8.05;;;5.20;;
79755;SDS011;69239;50.678;12.280;2023-06-26T08:32:36;6.65;;;4.25;;
79755;SDS011;69239;50.678;12.280;2023-06-26T08:35:02;6.18;;;4.60;;
79755;SDS011;69239;50.678;12.280;2023-06-26T08:37:27;7.38;;;5.20;;
79755;SDS011;69239;50.678;12.280;2023-06-26T08:39:53;7.50;;;5.00;;
79755;SDS011;69239;50.678;12.280;2023-06-26T08:42:18;6.93;;;4.78;;
79755;SDS011;69239;50.678;12.280;2023-06-26T08:44:44;5.97;;;4.45;;
79755;SDS011;69239;50.678;12.280;2023-06-26T08:47:10;7.43;;;5.20;;
79755;SDS011;69239;50.678;12.280;2023-06-26T08:49:42;5.43;;;4.75;;
79755;SDS011;69239;50.678;12.280;2023-06-26T08:52:35;7.43;;;4.63;;
79755;SDS011;69239;50.678;12.280;2023-06-26T08:55:16;5.57;;;4.65;;
79755;SDS011;69239;50.678;12.280;2023-06-26T08:57:46;7.28;;;4.60;;
79755;SDS011;69239;50.678;12.280;2023-06-26T09:00:12;6.68;;;5.35;;
79755;SDS011;69239;50.678;12.280;2023-06-26T09:02:40;6.63;;;4.28;;
79755;SDS011;69239;50.678;12.280;2023-06-26T09:05:06;8.43;;;5.13;;
79755;SDS011;69239;50.678;12.280;2023-06-26T09:07:32;6.32;;;5.30;;
79755;SDS011;69239;50.678;12.280;2023-06-26T09:09:57;7.18;;;4.65;;
79755;SDS011;69239;50.678;12.280;2023-06-26T09:12:23;8.68;;;5.72;;
79755;SDS011;69239;50.678;12.280;2023-06-26T09:14:56;6.88;;;5.30;;
79755;SDS011;69239;50.678;12.280;2023-06-26T09:17:27;7.22;;;5.45;;
79755;SDS011;69239;50.678;12.280;2023-06-26T09:19:55;6.25;;;5.45;;
79755;SDS011;69239;50.678;12.280;2023-06-26T09:22:20;7.85;;;5.10;;
79755;SDS011;69239;50.678;12.280;2023-06-26T09:24:46;5.85;;;4.82;;
79755;SDS011;69239;50.678;12.280;2023-06-26T09:27:12;6.38;;;4.88;;
79755;SDS011;69239;50.678;12.280;2023-06-26T09:29:38;7.03;;;5.00;;
79755;SDS011;69239;50.678;12.280;2023-06-26T09:32:04;6.70;;;5.03;;
79755;SDS011;69239;50.678;12.280;2023-06-26T09:34:40;5.65;;;4.80;;
79755;SDS011;69239;50.678;12.280;2023-06-26T09:37:06;10.32;;;4.82;;
79755;SDS011;69239;50.678;12.280;2023-06-26T09:39:32;7.07;;;5.05;;
79755;SDS011;69239;50.678;12.280;2023-06-26T09:41:58;8.82;;;5.45;;
79755;SDS011;69239;50.678;12.280;2023-06-26T09:44:24;7.05;;;4.90;;
79755;SDS011;69239;50.678;12.280;2023-06-26T09:46:50;6.95;;;4.72;;
79755;SDS011;69239;50.678;12.280;2023-06-26T09:49:15;6.50;;;4.75;;
79755;SDS011;69239;50.678;12.280;2023-06-26T09:51:41;6.85;;;4.80;;
79755;SDS011;69239;50.678;12.280;2023-06-26T09:54:07;6.15;;;4.80;;
79755;SDS011;69239;50.678;12.280;2023-06-26T09:56:34;5.20;;;4.35;;
79755;SDS011;69239;50.678;12.280;2023-06-26T09:59:00;5.95;;;4.78;;
79755;SDS011;69239;50.678;12.280;2023-06-26T10:01:28;4.88;;;4.38;;
79755;SDS011;69239;50.678;12.280;2023-06-26T10:03:55;5.85;;;4.82;;
79755;SDS011;69239;50.678;12.280;2023-06-26T10:09:19;5.68;;;4.90;;
79755;SDS011;69239;50.678;12.280;2023-06-26T10:11:51;6.00;;;4.55;;
79755;SDS011;69239;50.678;12.280;2023-06-26T10:14:21;6.35;;;5.05;;
79755;SDS011;69239;50.678;12.280;2023-06-26T10:16:48;6.22;;;4.78;;
79755;SDS011;69239;50.678;12.280;2023-06-26T10:19:14;7.63;;;5.10;;
79755;SDS011;69239;50.678;12.280;2023-06-26T10:21:44;5.80;;;4.80;;
79755;SDS011;69239;50.678;12.280;2023-06-26T10:24:10;6.18;;;5.07;;
79755;SDS011;69239;50.678;12.280;2023-06-26T10:26:38;5.43;;;4.32;;
79755;SDS011;69239;50.678;12.280;2023-06-26T10:29:09;7.13;;;4.95;;
79755;SDS011;69239;50.678;12.280;2023-06-26T10:31:35;6.68;;;4.93;;
79755;SDS011;69239;50.678;12.280;2023-06-26T10:34:02;5.53;;;4.60;;
79755;SDS011;69239;50.678;12.280;2023-06-26T10:36:30;6.38;;;4.80;;
79755;SDS011;69239;50.678;12.280;2023-06-26T10:38:57;5.28;;;4.38;;
79755;SDS011;69239;50.678;12.280;2023-06-26T10:41:24;6.53;;;4.40;;
79755;SDS011;69239;50.678;12.280;2023-06-26T10:46:28;6.53;;;4.65;;
79755;SDS011;69239;50.678;12.280;2023-06-26T10:48:56;5.22;;;4.43;;
79755;SDS011;69239;50.678;12.280;2023-06-26T10:51:24;4.38;;;3.90;;
79755;SDS011;69239;50.678;12.280;2023-06-26T10:54:00;5.90;;;4.53;;
79755;SDS011;69239;50.678;12.280;2023-06-26T10:56:41;5.25;;;4.38;;
79755;SDS011;69239;50.678;12.280;2023-06-26T10:59:23;4.75;;;4.30;;
79755;SDS011;69239;50.678;12.280;2023-06-26T11:01:59;5.38;;;4.60;;
79755;SDS011;69239;50.678;12.280;2023-06-26T11:04:37;5.53;;;4.38;;
79755;SDS011;69239;50.678;12.280;2023-06-26T11:12:36;4.80;;;4.20;;
79755;SDS011;69239;50.678;12.280;2023-06-26T11:15:10;5.22;;;4.35;;
79755;SDS011;69239;50.678;12.280;2023-06-26T11:17:37;5.65;;;4.25;;
79755;SDS011;69239;50.678;12.280;2023-06-26T11:20:11;5.68;;;4.22;;
79755;SDS011;69239;50.678;12.280;2023-06-26T11:22:40;5.30;;;4.22;;
79755;SDS011;69239;50.678;12.280;2023-06-26T11:25:06;4.93;;;4.32;;
79755;SDS011;69239;50.678;12.280;2023-06-26T11:27:42;5.53;;;4.63;;
79755;SDS011;69239;50.678;12.280;2023-06-26T11:30:10;5.38;;;4.18;;
79755;SDS011;69239;50.678;12.280;2023-06-26T11:32:50;7.35;;;4.65;;
79755;SDS011;69239;50.678;12.280;2023-06-26T11:35:22;6.10;;;4.53;;
79755;SDS011;69239;50.678;12.280;2023-06-26T11:37:58;4.82;;;4.32;;
79755;SDS011;69239;50.678;12.280;2023-06-26T11:40:29;5.78;;;4.35;;
79755;SDS011;69239;50.678;12.280;2023-06-26T11:43:00;5.38;;;4.25;;
79755;SDS011;69239;50.678;12.280;2023-06-26T11:45:30;5.35;;;4.28;;
79755;SDS011;69239;50.678;12.280;2023-06-26T11:47:57;5.88;;;4.78;;
79755;SDS011;69239;50.678;12.280;2023-06-26T11:50:24;5.40;;;4.40;;
79755;SDS011;69239;50.678;12.280;2023-06-26T11:52:59;8.00;;;4.47;;
79755;SDS011;69239;50.678;12.280;2023-06-26T11:55:24;6.13;;;4.28;;
79755;SDS011;69239;50.678;12.280;2023-06-26T11:57:54;19.88;;;5.30;;
79755;SDS011;69239;50.678;12.280;2023-06-26T12:00:21;5.78;;;4.50;;
79755;SDS011;69239;50.678;12.280;2023-06-26T12:02:47;6.00;;;4.78;;
79755;SDS011;69239;50.678;12.280;2023-06-26T12:05:13;5.25;;;4.75;;
79755;SDS011;69239;50.678;12.280;2023-06-26T12:07:43;6.25;;;4.65;;
79755;SDS011;69239;50.678;12.280;2023-06-26T12:10:11;6.90;;;4.40;;
79755;SDS011;69239;50.678;12.280;2023-06-26T12:12:38;6.40;;;4.22;;
79755;SDS011;69239;50.678;12.280;2023-06-26T12:15:05;5.30;;;4.80;;
79755;SDS011;69239;50.678;12.280;2023-06-26T12:17:31;6.38;;;4.78;;
79755;SDS011;69239;50.678;12.280;2023-06-26T12:19:57;7.43;;;5.00;;
79755;SDS011;69239;50.678;12.280;2023-06-26T12:22:22;6.15;;;5.15;;
79755;SDS011;69239;50.678;12.280;2023-06-26T12:24:48;6.03;;;4.47;;
79755;SDS011;69239;50.678;12.280;2023-06-26T12:27:14;6.55;;;4.57;;
79755;SDS011;69239;50.678;12.280;2023-06-26T12:29:45;5.55;;;4.32;;
79755;SDS011;69239;50.678;12.280;2023-06-26T12:32:15;5.57;;;4.95;;
79755;SDS011;69239;50.678;12.280;2023-06-26T12:34:41;5.75;;;4.72;;
79755;SDS011;69239;50.678;12.280;2023-06-26T12:37:08;5.55;;;4.75;;
79755;SDS011;69239;50.678;12.280;2023-06-26T12:39:51;5.65;;;4.80;;
79755;SDS011;69239;50.678;12.280;2023-06-26T12:42:24;5.30;;;4.50;;
79755;SDS011;69239;50.678;12.280;2023-06-26T12:44:51;4.93;;;4.43;;
79755;SDS011;69239;50.678;12.280;2023-06-26T12:47:18;5.68;;;4.75;;
79755;SDS011;69239;50.678;12.280;2023-06-26T12:49:45;7.15;;;4.50;;
79755;SDS011;69239;50.678;12.280;2023-06-26T12:52:15;5.53;;;4.93;;
79755;SDS011;69239;50.678;12.280;2023-06-26T12:54:44;5.50;;;4.38;;
79755;SDS011;69239;50.678;12.280;2023-06-26T12:57:10;5.15;;;4.60;;
79755;SDS011;69239;50.678;12.280;2023-06-26T12:59:42;5.15;;;4.50;;
79755;SDS011;69239;50.678;12.280;2023-06-26T13:02:08;4.57;;;4.18;;
79755;SDS011;69239;50.678;12.280;2023-06-26T13:04:36;5.57;;;4.50;;
79755;SDS011;69239;50.678;12.280;2023-06-26T13:07:05;6.07;;;4.72;;
79755;SDS011;69239;50.678;12.280;2023-06-26T13:09:34;6.63;;;4.07;;
79755;SDS011;69239;50.678;12.280;2023-06-26T13:12:00;5.97;;;4.60;;
79755;SDS011;69239;50.678;12.280;2023-06-26T13:14:27;5.95;;;4.15;;
79755;SDS011;69239;50.678;12.280;2023-06-26T13:16:52;5.93;;;4.90;;
79755;SDS011;69239;50.678;12.280;2023-06-26T13:19:17;4.85;;;4.35;;
79755;SDS011;69239;50.678;12.280;2023-06-26T13:21:43;4.53;;;3.90;;
79755;SDS011;69239;50.678;12.280;2023-06-26T13:24:09;4.55;;;4.15;;
79755;SDS011;69239;50.678;12.280;2023-06-26T13:26:34;4.78;;;4.28;;
79755;SDS011;69239;50.678;12.280;2023-06-26T13:28:59;4.68;;;4.28;;
79755;SDS011;69239;50.678;12.280;2023-06-26T13:31:25;7.88;;;4.20;;
79755;SDS011;69239;50.678;12.280;2023-06-26T13:33:50;6.15;;;4.15;;
79755;SDS011;69239;50.678;12.280;2023-06-26T13:36:17;5.50;;;4.57;;
79755;SDS011;69239;50.678;12.280;2023-06-26T13:38:43;4.90;;;4.40;;
79755;SDS011;69239;50.678;12.280;2023-06-26T13:41:08;5.18;;;4.45;;
79755;SDS011;69239;50.678;12.280;2023-06-26T13:43:34;5.22;;;4.40;;
79755;SDS011;69239;50.678;12.280;2023-06-26T13:46:00;5.82;;;4.60;;
79755;SDS011;69239;50.678;12.280;2023-06-26T13:48:26;4.97;;;4.30;;
79755;SDS011;69239;50.678;12.280;2023-06-26T13:50:51;6.50;;;4.70;;
79755;SDS011;69239;50.678;12.280;2023-06-26T13:53:17;7.20;;;4.32;;
79755;SDS011;69239;50.678;12.280;2023-06-26T13:55:43;5.35;;;4.72;;
79755;SDS011;69239;50.678;12.280;2023-06-26T13:58:08;7.95;;;5.03;;
79755;SDS011;69239;50.678;12.280;2023-06-26T14:00:35;5.28;;;4.30;;
79755;SDS011;69239;50.678;12.280;2023-06-26T14:03:04;5.10;;;4.25;;
79755;SDS011;69239;50.678;12.280;2023-06-26T14:05:31;5.47;;;4.82;;
79755;SDS011;69239;50.678;12.280;2023-06-26T14:07:57;6.63;;;4.50;;
79755;SDS011;69239;50.678;12.280;2023-06-26T14:10:22;5.95;;;4.60;;
79755;SDS011;69239;50.678;12.280;2023-06-26T14:12:48;5.78;;;4.45;;
79755;SDS011;69239;50.678;12.280;2023-06-26T14:15:13;5.70;;;4.95;;
79755;SDS011;69239;50.678;12.280;2023-06-26T14:17:39;5.93;;;4.53;;
79755;SDS011;69239;50.678;12.280;2023-06-26T14:20:07;6.63;;;4.35;;
79755;SDS011;69239;50.678;12.280;2023-06-26T14:22:41;5.90;;;4.40;;
79755;SDS011;69239;50.678;12.280;2023-06-26T14:25:10;6.45;;;4.53;;
79755;SDS011;69239;50.678;12.280;2023-06-26T14:27:36;4.97;;;4.32;;
79755;SDS011;69239;50.678;12.280;2023-06-26T14:30:02;7.38;;;4.63;;
79755;SDS011;69239;50.678;12.280;2023-06-26T14:32:28;6.70;;;5.05;;
79755;SDS011;69239;50.678;12.280;2023-06-26T14:34:54;6.35;;;5.00;;
79755;SDS011;69239;50.678;12.280;2023-06-26T14:37:19;5.70;;;4.22;;
79755;SDS011;69239;50.678;12.280;2023-06-26T14:39:45;5.65;;;4.88;;
79755;SDS011;69239;50.678;12.280;2023-06-26T14:42:10;6.47;;;4.28;;
79755;SDS011;69239;50.678;12.280;2023-06-26T14:44:36;6.25;;;4.68;;
79755;SDS011;69239;50.678;12.280;2023-06-26T14:47:01;5.53;;;4.43;;
79755;SDS011;69239;50.678;12.280;2023-06-26T14:49:27;4.90;;;4.40;;